TimeCDT,TemperatureF,Dew PointF,Humidity,Sea Level PressureIn,VisibilityMPH,Wind Direction,Wind SpeedMPH,Gust SpeedMPH,PrecipitationIn,Events,Conditions,WindDirDegrees,DateUTC
12:53 AM,86.0,62.1,44,29.93,10.0,SSE,16.1,-,N/A,,Clear,160,2013-08-04 05:53:00
1:53 AM,82.9,63.0,51,29.93,10.0,South,16.1,-,N/A,,Clear,170,2013-08-04 06:53:00
2:53 AM,82.0,63.0,52,29.93,10.0,South,17.3,-,N/A,,Clear,180,2013-08-04 07:53:00
3:53 AM,81.0,63.0,54,29.94,10.0,South,13.8,-,N/A,,Clear,190,2013-08-04 08:53:00
4:53 AM,79.0,63.0,58,29.95,10.0,SSW,10.4,-,N/A,,Clear,200,2013-08-04 09:53:00
5:53 AM,77.0,63.0,62,29.96,10.0,South,11.5,-,N/A,,Clear,190,2013-08-04 10:53:00
6:53 AM,77.0,63.0,62,29.98,10.0,South,9.2,-,N/A,,Clear,180,2013-08-04 11:53:00
7:53 AM,79.0,64.0,60,29.99,10.0,South,11.5,-,N/A,,Clear,180,2013-08-04 12:53:00
8:53 AM,82.9,64.0,53,30.00,10.0,South,15.0,-,N/A,,Clear,190,2013-08-04 13:53:00
9:53 AM,89.1,63.0,42,29.98,10.0,SSW,20.7,-,N/A,,Clear,200,2013-08-04 14:53:00
10:53 AM,91.9,62.1,37,29.97,10.0,SW,15.0,-,N/A,,Clear,220,2013-08-04 15:53:00
11:53 AM,97.0,59.0,28,29.95,10.0,SW,17.3,28.8,N/A,,Clear,220,2013-08-04 16:53:00
12:53 PM,99.0,57.0,25,29.94,10.0,West,9.2,19.6,N/A,,Clear,260,2013-08-04 17:53:00
1:53 PM,99.0,57.0,25,29.93,10.0,Variable,5.8,-,N/A,,Clear,0,2013-08-04 18:53:00
2:53 PM,102.0,57.9,23,29.91,10.0,WSW,12.7,24.2,N/A,,Clear,240,2013-08-04 19:53:00
3:22 PM,100.4,55.4,22,29.98,10.0,SSW,8.1,23.0,N/A,,Partly Cloudy,210,2013-08-04 20:22:00
3:53 PM,100.9,55.9,22,29.89,10.0,WSW,9.2,21.9,N/A,,Partly Cloudy,250,2013-08-04 20:53:00
4:53 PM,100.0,57.0,24,29.88,10.0,SSW,15.0,24.2,N/A,,Scattered Clouds,200,2013-08-04 21:53:00
5:53 PM,100.9,57.0,23,29.87,10.0,South,16.1,19.6,N/A,,Scattered Clouds,190,2013-08-04 22:53:00
6:53 PM,99.0,57.0,25,29.86,10.0,SW,13.8,-,N/A,,Clear,220,2013-08-04 23:53:00
7:53 PM,97.0,57.9,27,29.87,10.0,South,13.8,-,N/A,,Clear,190,2013-08-05 00:53:00
8:53 PM,91.0,59.0,34,29.88,10.0,SSE,8.1,-,N/A,,Clear,160,2013-08-05 01:53:00
9:53 PM,89.1,63.0,42,29.90,10.0,SSE,13.8,-,N/A,,Clear,160,2013-08-05 02:53:00
10:53 PM,87.1,62.1,43,29.91,10.0,SSE,15.0,-,N/A,,Clear,160,2013-08-05 03:53:00
11:53 PM,86.0,61.0,43,29.91,10.0,SSE,18.4,-,N/A,,Clear,160,2013-08-05 04:53:00